sensor_id;sensor_type;location;lat;lon;timestamp;P1;durP1;ratioP1;P2;durP2;ratioP2
63217;SDS011;49314;48.278;16.378;2024-03-23T00:53:08;13.77;;;12.38;;
63217;SDS011;49314;48.278;16.378;2024-03-23T00:55:34;12.82;;;11.48;;
63217;SDS011;49314;48.278;16.378;2024-03-23T00:57:59;13.35;;;11.95;;
63217;SDS011;49314;48.278;16.378;2024-03-23T01:00:24;13.00;;;11.68;;
63217;SDS011;49314;48.278;16.378;2024-03-23T01:02:49;11.35;;;10.32;;
63217;SDS011;49314;48.278;16.378;2024-03-23T01:05:15;20.17;;;15.52;;
63217;SDS011;49314;48.278;16.378;2024-03-23T01:07:40;17.02;;;13.48;;
63217;SDS011;49314;48.278;16.378;2024-03-23T01:10:05;13.65;;;12.27;;
63217;SDS011;49314;48.278;16.378;2024-03-23T01:12:30;10.20;;;9.15;;
63217;SDS011;49314;48.278;16.378;2024-03-23T01:14:56;11.73;;;10.65;;
63217;SDS011;49314;48.278;16.378;2024-03-23T01:17:21;13.73;;;12.27;;
63217;SDS011;49314;48.278;16.378;2024-03-23T01:19:46;9.20;;;8.30;;
63217;SDS011;49314;48.278;16.378;2024-03-23T01:22:12;9.35;;;8.48;;
63217;SDS011;49314;48.278;16.378;2024-03-23T01:24:37;11.48;;;10.27;;
63217;SDS011;49314;48.278;16.378;2024-03-23T01:27:03;13.63;;;10.32;;
63217;SDS011;49314;48.278;16.378;2024-03-23T01:29:28;10.98;;;9.88;;
63217;SDS011;49314;48.278;16.378;2024-03-23T01:31:53;8.93;;;8.07;;
63217;SDS011;49314;48.278;16.378;2024-03-23T01:34:19;9.30;;;8.50;;
63217;SDS011;49314;48.278;16.378;2024-03-23T01:36:45;9.23;;;8.38;;
63217;SDS011;49314;48.278;16.378;2024-03-23T01:39:11;10.88;;;9.73;;
63217;SDS011;49314;48.278;16.378;2024-03-23T01:41:36;9.65;;;8.85;;
63217;SDS011;49314;48.278;16.378;2024-03-23T01:44:05;8.63;;;7.82;;
63217;SDS011;49314;48.278;16.378;2024-03-23T01:46:31;9.48;;;8.50;;
63217;SDS011;49314;48.278;16.378;2024-03-23T01:48:56;8.55;;;7.75;;
63217;SDS011;49314;48.278;16.378;2024-03-23T01:51:21;9.10;;;8.32;;
63217;SDS011;49314;48.278;16.378;2024-03-23T01:53:47;9.43;;;8.52;;
63217;SDS011;49314;48.278;16.378;2024-03-23T01:56:12;9.77;;;9.00;;
63217;SDS011;49314;48.278;16.378;2024-03-23T01:58:38;8.48;;;7.72;;
63217;SDS011;49314;48.278;16.378;2024-03-23T02:01:03;9.25;;;8.52;;
63217;SDS011;49314;48.278;16.378;2024-03-23T02:03:29;8.73;;;7.97;;
63217;SDS011;49314;48.278;16.378;2024-03-23T02:05:54;8.70;;;7.53;;
63217;SDS011;49314;48.278;16.378;2024-03-23T02:08:20;14.32;;;11.00;;
63217;SDS011;49314;48.278;16.378;2024-03-23T02:10:46;17.77;;;13.27;;
63217;SDS011;49314;48.278;16.378;2024-03-23T02:13:11;17.35;;;13.60;;
63217;SDS011;49314;48.278;16.378;2024-03-23T02:15:38;11.40;;;9.95;;
63217;SDS011;49314;48.278;16.378;2024-03-23T02:18:03;10.63;;;9.30;;
63217;SDS011;49314;48.278;16.378;2024-03-23T02:20:29;22.05;;;17.23;;
63217;SDS011;49314;48.278;16.378;2024-03-23T02:22:54;29.98;;;20.92;;
63217;SDS011;49314;48.278;16.378;2024-03-23T02:25:19;33.25;;;23.95;;
63217;SDS011;49314;48.278;16.378;2024-03-23T02:27:44;34.70;;;25.35;;
63217;SDS011;49314;48.278;16.378;2024-03-23T02:30:10;35.85;;;24.33;;
63217;SDS011;49314;48.278;16.378;2024-03-23T02:32:35;33.38;;;22.30;;
63217;SDS011;49314;48.278;16.378;2024-03-23T02:35:00;18.48;;;15.50;;
63217;SDS011;49314;48.278;16.378;2024-03-23T02:37:26;23.45;;;15.95;;
63217;SDS011;49314;48.278;16.378;2024-03-23T02:39:51;13.00;;;11.48;;
63217;SDS011;49314;48.278;16.378;2024-03-23T02:42:16;15.35;;;12.43;;
63217;SDS011;49314;48.278;16.378;2024-03-23T02:44:43;19.60;;;13.93;;
63217;SDS011;49314;48.278;16.378;2024-03-23T02:47:08;18.85;;;13.35;;
63217;SDS011;49314;48.278;16.378;2024-03-23T02:49:33;16.98;;;14.38;;
63217;SDS011;49314;48.278;16.378;2024-03-23T02:51:58;29.67;;;19.38;;
63217;SDS011;49314;48.278;16.378;2024-03-23T02:54:24;53.38;;;33.92;;
63217;SDS011;49314;48.278;16.378;2024-03-23T02:56:49;47.30;;;28.83;;
63217;SDS011;49314;48.278;16.378;2024-03-23T02:59:14;32.80;;;22.58;;
63217;SDS011;49314;48.278;16.378;2024-03-23T03:01:40;26.00;;;18.15;;
63217;SDS011;49314;48.278;16.378;2024-03-23T03:04:05;16.48;;;13.60;;
63217;SDS011;49314;48.278;16.378;2024-03-23T03:06:30;17.88;;;15.95;;
63217;SDS011;49314;48.278;16.378;2024-03-23T03:08:56;20.38;;;14.73;;
63217;SDS011;49314;48.278;16.378;2024-03-23T03:11:21;20.35;;;14.25;;
63217;SDS011;49314;48.278;16.378;2024-03-23T03:13:46;20.23;;;14.88;;
63217;SDS011;49314;48.278;16.378;2024-03-23T03:16:12;27.92;;;18.33;;
63217;SDS011;49314;48.278;16.378;2024-03-23T03:18:37;24.75;;;19.50;;
63217;SDS011;49314;48.278;16.378;2024-03-23T03:21:03;26.75;;;18.02;;
63217;SDS011;49314;48.278;16.378;2024-03-23T03:23:30;23.77;;;17.50;;
63217;SDS011;49314;48.278;16.378;2024-03-23T03:25:55;24.67;;;16.73;;
63217;SDS011;49314;48.278;16.378;2024-03-23T03:28:20;23.15;;;16.45;;
63217;SDS011;49314;48.278;16.378;2024-03-23T03:30:46;22.92;;;18.20;;
63217;SDS011;49314;48.278;16.378;2024-03-23T03:33:11;26.60;;;17.65;;
63217;SDS011;49314;48.278;16.378;2024-03-23T03:35:36;24.58;;;16.80;;
63217;SDS011;49314;48.278;16.378;2024-03-23T03:38:02;26.77;;;17.20;;
63217;SDS011;49314;48.278;16.378;2024-03-23T03:40:28;18.25;;;16.27;;
63217;SDS011;49314;48.278;16.378;2024-03-23T03:42:53;20.38;;;15.75;;
63217;SDS011;49314;48.278;16.378;2024-03-23T03:45:18;19.98;;;15.73;;
63217;SDS011;49314;48.278;16.378;2024-03-23T03:47:43;19.38;;;15.35;;
63217;SDS011;49314;48.278;16.378;2024-03-23T03:50:09;16.23;;;14.52;;
63217;SDS011;49314;48.278;16.378;2024-03-23T03:52:34;15.80;;;14.07;;
63217;SDS011;49314;48.278;16.378;2024-03-23T03:55:02;16.15;;;13.48;;
63217;SDS011;49314;48.278;16.378;2024-03-23T03:57:28;16.10;;;14.52;;
63217;SDS011;49314;48.278;16.378;2024-03-23T03:59:54;16.27;;;14.70;;
63217;SDS011;49314;48.278;16.378;2024-03-23T04:02:19;15.15;;;13.75;;
63217;SDS011;49314;48.278;16.378;2024-03-23T04:04:44;15.45;;;13.80;;
63217;SDS011;49314;48.278;16.378;2024-03-23T04:07:09;15.90;;;14.20;;
63217;SDS011;49314;48.278;16.378;2024-03-23T04:09:35;15.32;;;13.85;;
63217;SDS011;49314;48.278;16.378;2024-03-23T04:12:00;14.55;;;13.05;;
63217;SDS011;49314;48.278;16.378;2024-03-23T04:14:25;14.20;;;12.75;;
63217;SDS011;49314;48.278;16.378;2024-03-23T04:16:51;14.77;;;13.38;;
63217;SDS011;49314;48.278;16.378;2024-03-23T04:19:16;16.48;;;13.52;;
63217;SDS011;49314;48.278;16.378;2024-03-23T04:21:41;15.27;;;13.70;;
63217;SDS011;49314;48.278;16.378;2024-03-23T04:24:07;16.70;;;14.52;;
63217;SDS011;49314;48.278;16.378;2024-03-23T04:26:41;15.35;;;13.95;;
63217;SDS011;49314;48.278;16.378;2024-03-23T04:29:07;18.67;;;14.18;;
63217;SDS011;49314;48.278;16.378;2024-03-23T04:31:32;16.58;;;14.00;;
63217;SDS011;49314;48.278;16.378;2024-03-23T04:33:59;14.52;;;13.13;;
63217;SDS011;49314;48.278;16.378;2024-03-23T04:36:24;15.30;;;14.00;;
63217;SDS011;49314;48.278;16.378;2024-03-23T04:38:50;16.90;;;15.07;;
63217;SDS011;49314;48.278;16.378;2024-03-23T04:41:17;17.05;;;15.15;;
63217;SDS011;49314;48.278;16.378;2024-03-23T04:43:42;15.73;;;14.18;;
63217;SDS011;49314;48.278;16.378;2024-03-23T04:46:07;15.73;;;14.07;;
63217;SDS011;49314;48.278;16.378;2024-03-23T04:48:33;18.05;;;15.13;;
63217;SDS011;49314;48.278;16.378;2024-03-23T04:50:58;16.42;;;14.68;;
63217;SDS011;49314;48.278;16.378;2024-03-23T04:53:23;15.32;;;13.82;;
63217;SDS011;49314;48.278;16.378;2024-03-23T04:55:53;15.15;;;13.85;;
63217;SDS011;49314;48.278;16.378;2024-03-23T04:58:18;15.30;;;13.85;;
63217;SDS011;49314;48.278;16.378;2024-03-23T05:00:43;14.82;;;13.63;;
63217;SDS011;49314;48.278;16.378;2024-03-23T05:03:08;14.60;;;13.30;;
63217;SDS011;49314;48.278;16.378;2024-03-23T05:05:34;16.00;;;14.50;;
63217;SDS011;49314;48.278;16.378;2024-03-23T05:07:59;17.13;;;15.65;;
63217;SDS011;49314;48.278;16.378;2024-03-23T05:10:24;15.60;;;14.10;;
63217;SDS011;49314;48.278;16.378;2024-03-23T05:12:50;15.20;;;13.90;;
63217;SDS011;49314;48.278;16.378;2024-03-23T05:15:15;16.42;;;14.85;;
63217;SDS011;49314;48.278;16.378;2024-03-23T05:17:40;15.23;;;13.73;;
63217;SDS011;49314;48.278;16.378;2024-03-23T05:20:06;14.40;;;13.18;;
63217;SDS011;49314;48.278;16.378;2024-03-23T05:22:34;14.90;;;13.63;;
63217;SDS011;49314;48.278;16.378;2024-03-23T05:25:00;14.50;;;13.30;;
63217;SDS011;49314;48.278;16.378;2024-03-23T05:27:25;16.02;;;14.63;;
63217;SDS011;49314;48.278;16.378;2024-03-23T05:29:51;15.07;;;13.50;;
63217;SDS011;49314;48.278;16.378;2024-03-23T05:32:16;14.95;;;13.75;;
63217;SDS011;49314;48.278;16.378;2024-03-23T05:34:41;16.00;;;14.50;;
63217;SDS011;49314;48.278;16.378;2024-03-23T05:37:06;15.85;;;14.48;;
63217;SDS011;49314;48.278;16.378;2024-03-23T05:39:32;15.95;;;14.40;;
63217;SDS011;49314;48.278;16.378;2024-03-23T05:41:57;17.13;;;15.50;;
63217;SDS011;49314;48.278;16.378;2024-03-23T05:44:22;15.25;;;13.75;;
63217;SDS011;49314;48.278;16.378;2024-03-23T05:46:47;15.07;;;13.68;;
63217;SDS011;49314;48.278;16.378;2024-03-23T05:49:13;14.40;;;12.90;;
63217;SDS011;49314;48.278;16.378;2024-03-23T05:51:39;15.05;;;13.77;;
63217;SDS011;49314;48.278;16.378;2024-03-23T05:54:04;15.18;;;13.85;;
63217;SDS011;49314;48.278;16.378;2024-03-23T05:56:30;16.70;;;14.75;;
63217;SDS011;49314;48.278;16.378;2024-03-23T05:58:55;15.45;;;14.07;;
63217;SDS011;49314;48.278;16.378;2024-03-23T06:01:20;16.48;;;13.00;;
63217;SDS011;49314;48.278;16.378;2024-03-23T06:03:45;14.75;;;13.55;;
63217;SDS011;49314;48.278;16.378;2024-03-23T06:06:11;16.35;;;14.85;;
63217;SDS011;49314;48.278;16.378;2024-03-23T06:08:38;16.90;;;15.43;;
63217;SDS011;49314;48.278;16.378;2024-03-23T06:11:03;15.35;;;13.88;;
63217;SDS011;49314;48.278;16.378;2024-03-23T06:13:29;16.17;;;14.60;;
63217;SDS011;49314;48.278;16.378;2024-03-23T06:15:55;15.13;;;13.73;;
63217;SDS011;49314;48.278;16.378;2024-03-23T06:18:20;16.63;;;15.05;;
63217;SDS011;49314;48.278;16.378;2024-03-23T06:20:46;17.58;;;14.98;;
63217;SDS011;49314;48.278;16.378;2024-03-23T06:23:11;16.92;;;15.23;;
63217;SDS011;49314;48.278;16.378;2024-03-23T06:25:37;15.93;;;14.32;;
63217;SDS011;49314;48.278;16.378;2024-03-23T06:28:03;16.20;;;14.70;;
63217;SDS011;49314;48.278;16.378;2024-03-23T06:30:29;16.30;;;14.80;;
63217;SDS011;49314;48.278;16.378;2024-03-23T06:32:55;17.45;;;15.93;;
63217;SDS011;49314;48.278;16.378;2024-03-23T06:35:20;16.52;;;14.93;;
63217;SDS011;49314;48.278;16.378;2024-03-23T06:37:45;16.80;;;15.30;;
63217;SDS011;49314;48.278;16.378;2024-03-23T06:40:10;17.73;;;15.95;;
63217;SDS011;49314;48.278;16.378;2024-03-23T06:42:36;18.00;;;16.25;;
63217;SDS011;49314;48.278;16.378;2024-03-23T06:45:02;16.48;;;14.93;;
63217;SDS011;49314;48.278;16.378;2024-03-23T06:47:29;15.27;;;13.57;;
63217;SDS011;49314;48.278;16.378;2024-03-23T06:49:55;15.98;;;14.45;;
63217;SDS011;49314;48.278;16.378;2024-03-23T06:52:20;15.93;;;14.30;;
63217;SDS011;49314;48.278;16.378;2024-03-23T06:54:45;15.88;;;14.40;;
63217;SDS011;49314;48.278;16.378;2024-03-23T06:57:11;15.77;;;14.38;;
63217;SDS011;49314;48.278;16.378;2024-03-23T06:59:37;15.55;;;13.73;;
63217;SDS011;49314;48.278;16.378;2024-03-23T07:02:02;15.07;;;13.35;;
63217;SDS011;49314;48.278;16.378;2024-03-23T07:04:27;14.10;;;12.80;;
63217;SDS011;49314;48.278;16.378;2024-03-23T07:06:52;15.55;;;14.15;;
63217;SDS011;49314;48.278;16.378;2024-03-23T07:09:18;16.33;;;12.43;;
63217;SDS011;49314;48.278;16.378;2024-03-23T07:11:44;14.00;;;12.70;;
63217;SDS011;49314;48.278;16.378;2024-03-23T07:14:10;15.13;;;13.52;;
63217;SDS011;49314;48.278;16.378;2024-03-23T07:16:37;16.45;;;14.88;;
63217;SDS011;49314;48.278;16.378;2024-03-23T07:19:02;17.40;;;15.77;;
63217;SDS011;49314;48.278;16.378;2024-03-23T07:21:28;16.42;;;14.93;;
63217;SDS011;49314;48.278;16.378;2024-03-23T07:23:54;16.02;;;14.50;;
63217;SDS011;49314;48.278;16.378;2024-03-23T07:26:22;15.45;;;14.05;;
63217;SDS011;49314;48.278;16.378;2024-03-23T07:28:48;15.52;;;14.07;;
63217;SDS011;49314;48.278;16.378;2024-03-23T07:31:17;17.08;;;15.55;;
63217;SDS011;49314;48.278;16.378;2024-03-23T07:33:44;16.67;;;15.00;;
63217;SDS011;49314;48.278;16.378;2024-03-23T07:36:10;16.65;;;15.15;;
63217;SDS011;49314;48.278;16.378;2024-03-23T07:38:35;15.93;;;14.43;;
63217;SDS011;49314;48.278;16.378;2024-03-23T07:41:08;16.40;;;14.90;;
63217;SDS011;49314;48.278;16.378;2024-03-23T07:43:34;16.52;;;15.02;;
63217;SDS011;49314;48.278;16.378;2024-03-23T07:46:00;20.13;;;18.15;;
63217;SDS011;49314;48.278;16.378;2024-03-23T07:48:26;33.30;;;24.05;;
63217;SDS011;49314;48.278;16.378;2024-03-23T07:51:04;15.82;;;14.23;;
63217;SDS011;49314;48.278;16.378;2024-03-23T07:53:32;18.60;;;16.75;;
63217;SDS011;49314;48.278;16.378;2024-03-23T07:58:47;15.98;;;13.73;;
63217;SDS011;49314;48.278;16.378;2024-03-23T08:01:17;14.73;;;13.00;;
63217;SDS011;49314;48.278;16.378;2024-03-23T08:03:43;15.07;;;13.57;;
63217;SDS011;49314;48.278;16.378;2024-03-23T08:06:16;15.13;;;12.10;;
63217;SDS011;49314;48.278;16.378;2024-03-23T08:08:44;12.38;;;11.27;;
63217;SDS011;49314;48.278;16.378;2024-03-23T08:11:10;11.43;;;10.32;;
63217;SDS011;49314;48.278;16.378;2024-03-23T08:13:37;13.73;;;10.88;;
63217;SDS011;49314;48.278;16.378;2024-03-23T08:21:02;9.93;;;9.10;;
63217;SDS011;49314;48.278;16.378;2024-03-23T08:23:28;11.50;;;8.70;;
63217;SDS011;49314;48.278;16.378;2024-03-23T08:26:02;10.18;;;8.93;;
63217;SDS011;49314;48.278;16.378;2024-03-23T08:28:32;9.43;;;8.63;;
63217;SDS011;49314;48.278;16.378;2024-03-23T08:31:03;12.52;;;8.85;;
63217;SDS011;49314;48.278;16.378;2024-03-23T08:33:33;9.90;;;8.75;;
63217;SDS011;49314;48.278;16.378;2024-03-23T08:36:06;9.07;;;8.18;;
63217;SDS011;49314;48.278;16.378;2024-03-23T08:38:33;9.20;;;8.40;;
63217;SDS011;49314;48.278;16.378;2024-03-23T08:41:05;8.57;;;7.78;;
63217;SDS011;49314;48.278;16.378;2024-03-23T08:43:40;10.18;;;8.27;;
63217;SDS011;49314;48.278;16.378;2024-03-23T08:46:09;9.02;;;8.32;;
63217;SDS011;49314;48.278;16.378;2024-03-23T08:48:39;8.60;;;7.90;;
63217;SDS011;49314;48.278;16.378;2024-03-23T08:51:15;9.77;;;8.85;;
63217;SDS011;49314;48.278;16.378;2024-03-23T08:53:46;9.25;;;8.52;;
63217;SDS011;49314;48.278;16.378;2024-03-23T08:56:14;10.57;;;9.68;;
63217;SDS011;49314;48.278;16.378;2024-03-23T08:58:42;9.45;;;8.65;;
63217;SDS011;49314;48.278;16.378;2024-03-23T09:01:13;10.55;;;9.55;;
63217;SDS011;49314;48.278;16.378;2024-03-23T09:03:42;9.20;;;8.50;;
63217;SDS011;49314;48.278;16.378;2024-03-23T09:06:09;9.10;;;8.32;;
63217;SDS011;49314;48.278;16.378;2024-03-23T09:08:44;7.95;;;7.25;;
63217;SDS011;49314;48.278;16.378;2024-03-23T09:11:13;7.40;;;6.70;;
63217;SDS011;49314;48.278;16.378;2024-03-23T09:13:41;6.15;;;5.65;;
63217;SDS011;49314;48.278;16.378;2024-03-23T09:16:14;8.18;;;7.38;;
63217;SDS011;49314;48.278;16.378;2024-03-23T09:18:40;7.50;;;5.90;;
63217;SDS011;49314;48.278;16.378;2024-03-23T09:21:13;6.40;;;5.80;;
63217;SDS011;49314;48.278;16.378;2024-03-23T09:23:40;6.45;;;5.78;;
63217;SDS011;49314;48.278;16.378;2024-03-23T09:26:05;5.55;;;5.03;;
63217;SDS011;49314;48.278;16.378;2024-03-23T09:28:33;5.65;;;5.05;;
63217;SDS011;49314;48.278;16.378;2024-03-23T09:31:08;7.35;;;4.60;;
63217;SDS011;49314;48.278;16.378;2024-03-23T09:33:35;5.70;;;4.97;;
63217;SDS011;49314;48.278;16.378;2024-03-23T09:36:04;5.72;;;4.10;;
63217;SDS011;49314;48.278;16.378;2024-03-23T09:38:30;7.35;;;4.60;;
63217;SDS011;49314;48.278;16.378;2024-03-23T09:40:56;4.60;;;4.20;;
63217;SDS011;49314;48.278;16.378;2024-03-23T09:43:25;4.50;;;4.10;;
63217;SDS011;49314;48.278;16.378;2024-03-23T09:45:52;4.80;;;4.30;;
63217;SDS011;49314;48.278;16.378;2024-03-23T09:48:19;5.68;;;4.28;;
63217;SDS011;49314;48.278;16.378;2024-03-23T09:50:45;4.90;;;4.13;;
63217;SDS011;49314;48.278;16.378;2024-03-23T09:53:14;5.47;;;4.88;;
63217;SDS011;49314;48.278;16.378;2024-03-23T09:55:46;5.28;;;3.97;;
63217;SDS011;49314;48.278;16.378;2024-03-23T10:00:38;4.28;;;3.78;;
63217;SDS011;49314;48.278;16.378;2024-03-23T10:03:04;4.00;;;3.60;;
63217;SDS011;49314;48.278;16.378;2024-03-23T10:05:37;3.78;;;3.10;;
63217;SDS011;49314;48.278;16.378;2024-03-23T10:10:43;3.85;;;3.10;;
63217;SDS011;49314;48.278;16.378;2024-03-23T10:13:10;3.67;;;2.72;;
63217;SDS011;49314;48.278;16.378;2024-03-23T10:15:44;3.55;;;3.13;;
63217;SDS011;49314;48.278;16.378;2024-03-23T10:18:21;3.45;;;2.88;;
63217;SDS011;49314;48.278;16.378;2024-03-23T10:21:05;3.72;;;3.42;;
63217;SDS011;49314;48.278;16.378;2024-03-23T10:23:43;3.85;;;2.88;;
63217;SDS011;49314;48.278;16.378;2024-03-23T10:29:00;2.60;;;2.40;;
63217;SDS011;49314;48.278;16.378;2024-03-23T10:31:33;2.88;;;2.58;;
63217;SDS011;49314;48.278;16.378;2024-03-23T10:33:59;3.45;;;2.50;;
63217;SDS011;49314;48.278;16.378;2024-03-23T10:36:26;2.92;;;2.63;;
63217;SDS011;49314;48.278;16.378;2024-03-23T10:38:57;5.35;;;2.58;;
63217;SDS011;49314;48.278;16.378;2024-03-23T10:41:27;3.78;;;2.42;;
63217;SDS011;49314;48.278;16.378;2024-03-23T10:43:54;3.83;;;2.58;;
63217;SDS011;49314;48.278;16.378;2024-03-23T10:46:21;4.25;;;2.90;;
63217;SDS011;49314;48.278;16.378;2024-03-23T10:48:47;4.15;;;2.40;;
63217;SDS011;49314;48.278;16.378;2024-03-23T10:51:12;3.17;;;2.65;;
63217;SDS011;49314;48.278;16.378;2024-03-23T10:53:42;2.55;;;2.35;;
63217;SDS011;49314;48.278;16.378;2024-03-23T10:56:08;3.35;;;2.60;;
63217;SDS011;49314;48.278;16.378;2024-03-23T13:53:12;3.20;;;2.10;;
63217;SDS011;49314;48.278;16.378;2024-03-23T13:55:38;1.83;;;1.83;;
63217;SDS011;49314;48.278;16.378;2024-03-23T13:58:10;2.00;;;1.55;;
63217;SDS011;49314;48.278;16.378;2024-03-23T14:00:37;2.55;;;2.22;;
63217;SDS011;49314;48.278;16.378;2024-03-23T14:03:02;2.97;;;2.88;;
63217;SDS011;49314;48.278;16.378;2024-03-23T14:05:28;3.08;;;2.88;;
63217;SDS011;49314;48.278;16.378;2024-03-23T14:07:53;2.90;;;2.80;;
63217;SDS011;49314;48.278;16.378;2024-03-23T14:10:18;2.72;;;2.58;;
63217;SDS011;49314;48.278;16.378;2024-03-23T14:12:44;3.72;;;3.53;;
63217;SDS011;49314;48.278;16.378;2024-03-23T14:15:09;2.85;;;2.75;;
63217;SDS011;49314;48.278;16.378;2024-03-23T14:17:35;3.50;;;3.30;;
63217;SDS011;49314;48.278;16.378;2024-03-23T14:20:00;2.97;;;2.88;;
63217;SDS011;49314;48.278;16.378;2024-03-23T14:22:26;3.67;;;3.47;;
63217;SDS011;49314;48.278;16.378;2024-03-23T14:24:52;4.07;;;3.88;;
63217;SDS011;49314;48.278;16.378;2024-03-23T14:27:17;3.42;;;3.33;;
63217;SDS011;49314;48.278;16.378;2024-03-23T14:29:45;4.40;;;4.20;;
63217;SDS011;49314;48.278;16.378;2024-03-23T14:32:10;3.92;;;3.83;;
63217;SDS011;49314;48.278;16.378;2024-03-23T14:34:36;5.68;;;4.78;;
63217;SDS011;49314;48.278;16.378;2024-03-23T14:37:01;4.80;;;4.60;;
63217;SDS011;49314;48.278;16.378;2024-03-23T14:39:27;3.83;;;3.63;;
63217;SDS011;49314;48.278;16.378;2024-03-23T14:41:52;6.00;;;5.55;;
63217;SDS011;49314;48.278;16.378;2024-03-23T14:44:17;5.93;;;5.53;;
63217;SDS011;49314;48.278;16.378;2024-03-23T14:46:43;4.10;;;3.92;;
63217;SDS011;49314;48.278;16.378;2024-03-23T14:49:08;5.20;;;4.90;;
63217;SDS011;49314;48.278;16.378;2024-03-23T14:51:33;3.45;;;3.35;;
63217;SDS011;49314;48.278;16.378;2024-03-23T14:53:59;5.03;;;4.68;;
63217;SDS011;49314;48.278;16.378;2024-03-23T14:56:24;4.22;;;4.03;;
63217;SDS011;49314;48.278;16.378;2024-03-23T14:58:52;3.95;;;3.75;;
63217;SDS011;49314;48.278;16.378;2024-03-23T15:01:17;5.43;;;5.00;;
63217;SDS011;49314;48.278;16.378;2024-03-23T15:03:43;4.93;;;4.20;;
63217;SDS011;49314;48.278;16.378;2024-03-23T15:06:09;6.05;;;4.97;;
63217;SDS011;49314;48.278;16.378;2024-03-23T15:08:35;5.38;;;4.97;;
63217;SDS011;49314;48.278;16.378;2024-03-23T15:11:01;5.30;;;5.05;;
63217;SDS011;49314;48.278;16.378;2024-03-23T15:13:36;5.00;;;4.70;;
63217;SDS011;49314;48.278;16.378;2024-03-23T15:16:01;4.78;;;4.55;;
63217;SDS011;49314;48.278;16.378;2024-03-23T15:18:28;4.10;;;3.90;;
63217;SDS011;49314;48.278;16.378;2024-03-23T15:20:55;4.93;;;4.72;;
63217;SDS011;49314;48.278;16.378;2024-03-23T15:23:20;6.57;;;6.15;;
63217;SDS011;49314;48.278;16.378;2024-03-23T15:25:53;5.35;;;5.05;;
63217;SDS011;49314;48.278;16.378;2024-03-23T15:28:18;4.83;;;4.57;;
63217;SDS011;49314;48.278;16.378;2024-03-23T15:30:44;5.82;;;5.60;;
63217;SDS011;49314;48.278;16.378;2024-03-23T15:33:09;4.22;;;4.13;;
63217;SDS011;49314;48.278;16.378;2024-03-23T15:35:35;5.57;;;5.38;;
63217;SDS011;49314;48.278;16.378;2024-03-23T15:38:00;7.10;;;6.70;;
63217;SDS011;49314;48.278;16.378;2024-03-23T15:40:28;6.32;;;5.95;;
63217;SDS011;49314;48.278;16.378;2024-03-23T15:43:03;7.28;;;6.93;;
63217;SDS011;49314;48.278;16.378;2024-03-23T15:45:29;7.93;;;7.45;;
63217;SDS011;49314;48.278;16.378;2024-03-23T15:47:57;3.85;;;3.47;;
63217;SDS011;49314;48.278;16.378;2024-03-23T15:50:23;6.57;;;6.28;;
63217;SDS011;49314;48.278;16.378;2024-03-23T15:52:48;5.22;;;4.95;;
63217;SDS011;49314;48.278;16.378;2024-03-23T15:55:21;5.53;;;5.13;;
63217;SDS011;49314;48.278;16.378;2024-03-23T15:57:53;3.97;;;3.78;;
63217;SDS011;49314;48.278;16.378;2024-03-23T16:00:21;4.47;;;4.25;;
63217;SDS011;49314;48.278;16.378;2024-03-23T16:02:46;4.70;;;4.50;;
63217;SDS011;49314;48.278;16.378;2024-03-23T16:05:12;5.30;;;5.00;;
63217;SDS011;49314;48.278;16.378;2024-03-23T16:07:38;4.53;;;4.22;;
63217;SDS011;49314;48.278;16.378;2024-03-23T16:10:04;4.60;;;4.40;;
63217;SDS011;49314;48.278;16.378;2024-03-23T16:12:32;5.95;;;5.72;;
63217;SDS011;49314;48.278;16.378;2024-03-23T16:14:58;6.28;;;5.97;;
63217;SDS011;49314;48.278;16.378;2024-03-23T16:17:24;4.75;;;4.65;;
63217;SDS011;49314;48.278;16.378;2024-03-23T16:19:53;4.00;;;3.90;;
63217;SDS011;49314;48.278;16.378;2024-03-23T16:22:19;6.10;;;5.90;;
63217;SDS011;49314;48.278;16.378;2024-03-23T16:24:44;3.03;;;2.83;;
63217;SDS011;49314;48.278;16.378;2024-03-23T16:27:10;29.10;;;16.80;;
63217;SDS011;49314;48.278;16.378;2024-03-23T16:29:35;4.57;;;4.38;;
63217;SDS011;49314;48.278;16.378;2024-03-23T16:32:02;5.88;;;5.68;;
63217;SDS011;49314;48.278;16.378;2024-03-23T16:34:27;3.53;;;3.42;;
63217;SDS011;49314;48.278;16.378;2024-03-23T16:36:55;4.95;;;4.65;;
63217;SDS011;49314;48.278;16.378;2024-03-23T16:39:24;4.53;;;4.43;;
63217;SDS011;49314;48.278;16.378;2024-03-23T16:57:33;6.70;;;6.40;;
63217;SDS011;49314;48.278;16.378;2024-03-23T16:59:59;7.22;;;6.82;;
63217;SDS011;49314;48.278;16.378;2024-03-23T17:02:24;5.70;;;5.30;;
63217;SDS011;49314;48.278;16.378;2024-03-23T17:04:49;7.88;;;7.25;;
63217;SDS011;49314;48.278;16.378;2024-03-23T17:07:20;6.13;;;5.72;;
63217;SDS011;49314;48.278;16.378;2024-03-23T17:09:46;7.20;;;6.68;;
63217;SDS011;49314;48.278;16.378;2024-03-23T17:12:12;6.10;;;5.70;;
63217;SDS011;49314;48.278;16.378;2024-03-23T17:14:37;5.15;;;4.85;;
63217;SDS011;49314;48.278;16.378;2024-03-23T17:17:06;16.42;;;15.02;;
63217;SDS011;49314;48.278;16.378;2024-03-23T17:19:32;9.10;;;8.40;;
63217;SDS011;49314;48.278;16.378;2024-03-23T17:22:05;7.32;;;6.85;;
63217;SDS011;49314;48.278;16.378;2024-03-23T17:24:31;10.75;;;10.07;;
63217;SDS011;49314;48.278;16.378;2024-03-23T17:26:57;10.25;;;9.45;;
63217;SDS011;49314;48.278;16.378;2024-03-23T17:29:22;4.85;;;4.65;;
63217;SDS011;49314;48.278;16.378;2024-03-23T17:31:53;5.75;;;5.45;;
63217;SDS011;49314;48.278;16.378;2024-03-23T17:34:20;4.13;;;3.93;;
63217;SDS011;49314;48.278;16.378;2024-03-23T17:36:46;4.55;;;4.25;;
63217;SDS011;49314;48.278;16.378;2024-03-23T17:39:11;5.00;;;4.80;;
63217;SDS011;49314;48.278;16.378;2024-03-23T17:41:37;5.60;;;5.35;;
63217;SDS011;49314;48.278;16.378;2024-03-23T17:44:02;5.35;;;5.15;;
63217;SDS011;49314;48.278;16.378;2024-03-23T17:46:28;4.22;;;4.03;;
63217;SDS011;49314;48.278;16.378;2024-03-23T17:48:56;4.53;;;4.40;;
63217;SDS011;49314;48.278;16.378;2024-03-23T17:51:24;4.38;;;4.18;;
63217;SDS011;49314;48.278;16.378;2024-03-23T17:53:49;4.95;;;4.75;;
63217;SDS011;49314;48.278;16.378;2024-03-23T17:56:20;5.93;;;5.65;;
63217;SDS011;49314;48.278;16.378;2024-03-23T17:58:51;5.72;;;5.35;;
63217;SDS011;49314;48.278;16.378;2024-03-23T18:01:17;5.20;;;4.90;;
63217;SDS011;49314;48.278;16.378;2024-03-23T18:03:50;3.63;;;3.42;;
63217;SDS011;49314;48.278;16.378;2024-03-23T18:06:15;5.00;;;4.80;;
63217;SDS011;49314;48.278;16.378;2024-03-23T18:08:41;3.78;;;3.67;;
63217;SDS011;49314;48.278;16.378;2024-03-23T18:11:07;3.65;;;3.45;;
63217;SDS011;49314;48.278;16.378;2024-03-23T18:13:33;5.13;;;4.93;;
63217;SDS011;49314;48.278;16.378;2024-03-23T18:15:58;3.33;;;3.15;;
63217;SDS011;49314;48.278;16.378;2024-03-23T18:18:24;5.05;;;4.75;;
63217;SDS011;49314;48.278;16.378;2024-03-23T18:20:53;4.25;;;4.05;;
63217;SDS011;49314;48.278;16.378;2024-03-23T18:23:19;6.22;;;5.82;;
63217;SDS011;49314;48.278;16.378;2024-03-23T18:25:56;5.45;;;5.20;;
63217;SDS011;49314;48.278;16.378;2024-03-23T18:28:25;4.72;;;4.43;;
63217;SDS011;49314;48.278;16.378;2024-03-23T18:30:57;5.25;;;4.85;;
63217;SDS011;49314;48.278;16.378;2024-03-23T18:33:28;4.10;;;3.90;;
63217;SDS011;49314;48.278;16.378;2024-03-23T18:35:59;20.60;;;13.18;;